Latest Coastal Weather Observations for Charles Point

IDD60701

Issued at 4:21 am CST Wednesday 22 February 2017 (issued every 10 minutes, with the page automatically refreshed every 10 minutes)

About coastal observations | Map of coastal stations | Coastal observations for NT | Marine services | Other Formats
Station Details ID: 014031 Name: CHARLES POINT Lat: -12.39 Lon: 130.63 Height: 14.0 m
Data from the previous 72 hours. | See also: Recent months for locations in Northern Territory
Date/Time
CST
Temp
°C
Wind Pressure Rain since
9am
mm
Weather Cloud Vis
km
Sea
Height
m
Swell
Dir  Spd
kts
Gust
kts
hPa Trend Height
m
Period
s
Dir
22/04:00am 26.2 WSW 3 5 1009.0 - 0.0 - - - - - - -
22/03:30am 26.1 WSW 3 5 1008.8 - 0.0 - - - - - - -
22/03:00am 26.1 SW 2 4 1008.9 - 0.0 - - - - - - -
22/02:30am 26.4 SW 2 4 1008.9 - 0.0 - - - - - - -
22/02:00am 26.8 WSW 3 5 1009.1 - 0.0 - - - - - - -
22/01:30am 26.9 WSW 2 4 1009.3 - 0.0 - - - - - - -
22/01:00am 27.1 WSW 3 5 1009.5 - 0.0 - - - - - - -
22/12:30am 27.1 WSW 3 5 1009.8 - 0.0 - - - - - - -
22/12:00am 27.2 WSW 3 6 1010.2 - 0.0 - - - - - - -
 
Date/Time
CST
Temp
°C
Wind Pressure Rain since
9am
mm
Weather Cloud Vis
km
Sea
Height
m
Swell
Dir  Spd
kts
Gust
kts
hPa Trend Height
m
Period
s
Dir
21/11:30pm 27.3 SW 3 6 1010.4 - 0.0 - - - - - - -
21/11:00pm 27.2 SW 2 4 1010.6 - 0.0 - - - - - - -
21/10:30pm 27.3 SW 2 4 1010.5 - 0.0 - - - - - - -
21/10:00pm 27.6 WSW 3 6 1010.4 - 0.0 - - - - - - -
21/09:30pm 27.7 WSW 3 5 1010.1 - 0.0 - - - - - - -
21/09:00pm 27.7 WSW 3 6 1009.8 - 0.0 - - - - - - -
21/08:30pm 27.8 WSW 3 5 1009.7 - 0.0 - - - - - - -
21/08:00pm 27.9 WSW 3 5 1009.2 - 0.0 - - - - - - -
21/07:30pm 28.3 WSW 3 5 1009.0 - 0.0 - - - - - - -
21/07:00pm 29.0 WSW 3 7 1008.9 - 0.0 - - - - - - -
21/06:30pm 29.8 W 5 9 1008.7 - 0.0 - - - - - - -
21/06:00pm 30.4 W 6 11 1008.5 - 0.0 - - - - - - -
21/05:30pm 30.8 W 7 11 1008.2 - 0.0 - - - - - - -
21/05:00pm 30.9 WNW 8 12 1008.4 - 0.0 - - - - - - -
21/04:30pm 31.2 W 8 13 1008.1 - 0.0 - - - - - - -
21/04:00pm 31.5 W 7 13 1008.0 - 0.0 - - - - - - -
21/03:30pm 31.0 W 7 13 1008.4 - 0.0 - - - - - - -
21/03:00pm 31.3 WNW 9 14 1008.4 - 0.0 - - - - - - -
21/02:30pm 31.3 W 9 13 1008.7 - 0.0 - - - - - - -
21/02:00pm 31.4 WNW 10 16 1009.1 - 0.0 - - - - - - -
21/01:30pm 31.2 WNW 12 16 1009.8 - 0.0 - - - - - - -
21/01:00pm 31.4 WNW 11 14 1010.4 - 0.0 - - - - - - -
21/12:30pm 31.3 WNW 11 14 1011.0 - 0.0 - - - - - - -
21/12:00pm 31.4 WNW 9 13 1011.4 - 0.0 - - - - - - -
21/11:30am 31.4 WNW 9 12 1011.6 - 0.0 - - - - - - -
21/11:00am 31.8 W 5 10 1012.0 - 0.0 - - - - - - -
21/10:30am 31.4 SSW 3 6 1012.3 - 0.0 - - - - - - -
21/10:00am 31.0 WSW 3 7 1012.3 - 0.0 - - - - - - -
21/09:30am 30.4 SW 4 7 1012.2 - 0.0 - - - - - - -
21/09:00am 29.8 W 3 7 1012.1 - 1.0 - - - - - - -
21/08:30am 29.2 SSW 3 7 1011.6 - 1.0 - - - - - - -
21/08:00am 27.8 SW 2 5 1011.2 - 1.0 - - - - - - -
21/07:30am 26.6 SW 2 3 1010.6 - 1.0 - - - - - - -
21/07:00am 26.1 SW 2 3 1010.0 - 1.0 - - - - - - -
21/06:30am 26.4 SW 2 3 1009.4 - 1.0 - - - - - - -
21/06:00am 26.6 WSW 2 4 1009.0 - 1.0 - - - - - - -
21/05:30am 26.7 SW 2 5 1008.7 - 1.0 - - - - - - -
21/05:00am 26.7 SW 2 4 1008.4 - 1.0 - - - - - - -
21/04:30am 26.6 WSW 2 4 1008.2 - 1.0 - - - - - - -
21/04:00am 26.3 WSW 2 3 1008.0 - 1.0 - - - - - - -
21/03:30am 26.2 SW 2 3 1008.1 - 1.0 - - - - - - -
21/03:00am 26.5 SW 2 4 1008.5 - 1.0 - - - - - - -
21/02:30am 26.0 SW 2 3 1008.6 - 1.0 - - - - - - -
21/02:00am 26.5 SW 2 3 1008.7 - 1.0 - - - - - - -
21/01:30am 27.0 SW 3 5 1008.9 - 1.0 - - - - - - -
21/01:00am 27.0 SW 3 5 1009.1 - 1.0 - - - - - - -
21/12:30am 27.3 SW 2 4 1009.4 - 1.0 - - - - - - -
21/12:00am 27.4 SW 3 5 1009.6 - 1.0 - - - - - - -
 
Date/Time
CST
Temp
°C
Wind Pressure Rain since
9am
mm
Weather Cloud Vis
km
Sea
Height
m
Swell
Dir  Spd
kts
Gust
kts
hPa Trend Height
m
Period
s
Dir
20/11:30pm 27.3 SW 3 5 1009.8 - 1.0 - - - - - - -
20/11:00pm 27.1 WSW 2 4 1009.8 - 1.0 - - - - - - -
20/10:30pm 27.3 WSW 2 3 1009.8 - 1.0 - - - - - - -
20/10:00pm 27.5 WSW 3 5 1009.7 - 1.0 - - - - - - -
20/09:30pm 27.6 WSW 2 4 1009.4 - 1.0 - - - - - - -
20/09:00pm 27.8 WSW 2 3 1009.2 - 1.0 - - - - - - -
20/08:30pm 27.8 WSW 3 6 1008.9 - 1.0 - - - - - - -
20/08:00pm 28.2 W 2 4 1008.6 - 1.0 - - - - - - -
20/07:30pm 28.5 W 3 7 1008.2 - 1.0 - - - - - - -
20/07:00pm 29.1 W 3 7 1007.8 - 1.0 - - - - - - -
20/06:30pm 29.9 W 6 9 1007.3 - 1.0 - - - - - - -
20/06:00pm 30.2 WNW 8 11 1006.9 - 1.0 - - - - - - -
20/05:30pm 30.6 WNW 8 11 1006.5 - 1.0 - - - - - - -
20/05:00pm 30.9 WNW 8 11 1006.2 - 1.0 - - - - - - -
20/04:30pm 30.8 WNW 8 11 1006.1 - 1.0 - - - - - - -
20/04:00pm 31.0 WNW 8 11 1006.1 - 1.0 - - - - - - -
20/03:30pm 31.0 WNW 7 10 1006.4 - 1.0 - - - - - - -
20/03:00pm 30.4 NW 7 9 1006.7 - 1.0 Recent precip. - - - - - -
20/02:30pm 29.6 WNW 6 8 1007.1 - 0.8 - - - - - - -
20/02:00pm 28.4 NW 3 6 1007.4 - 0.8 - - - - - - -
20/01:30pm 29.4 NW 5 8 1007.8 - 0.0 - - - - - - -
20/01:00pm 29.5 NW 6 9 1008.2 - 0.0 - - - - - - -
20/12:30pm 30.0 WNW 8 10 1008.5 - 0.0 - - - - - - -
20/12:00pm 29.8 NW 6 9 1008.7 - 0.0 - - - - - - -
20/11:30am 29.7 W 4 6 1009.1 - 0.0 - - - - - - -
20/11:00am 29.2 WSW 3 5 1009.6 - 0.0 - - - - - - -
20/10:30am 28.8 WSW 2 4 1009.8 - 0.0 - - - - - - -
20/10:00am 28.4 WSW 2 3 1009.8 - 0.0 - - - - - - -
20/09:30am 27.9 WSW 2 3 1009.7 - 0.0 - - - - - - -
20/09:00am 27.7 WSW 1 3 1009.7 - 0.0 - - - - - - -
20/08:30am 27.5 SW 2 3 1009.5 - 0.0 - - - - - - -
20/08:00am 26.8 SW 1 2 1009.3 - 0.0 - - - - - - -
20/07:30am 24.8 SW 2 2 1008.9 - 0.0 - - - - - - -
20/07:00am 24.3 SSW 2 4 1008.6 - 0.0 - - - - - - -
20/06:30am 24.4 S 2 3 1008.4 - 0.0 - - - - - - -
20/06:00am 24.9 S 1 1 1007.9 - 0.0 - - - - - - -
20/05:30am 25.3 S 2 4 1007.9 - 0.0 - - - - - - -
20/05:00am 25.5 SSW 3 5 1007.7 - 0.0 - - - - - - -
20/04:30am 26.4 SSW 3 6 1007.4 - 0.0 - - - - - - -
20/04:00am 27.3 SW 1 3 1007.0 - 0.0 - - - - - - -
20/03:30am 27.7 SW 1 4 1007.3 - 0.0 - - - - - - -
20/03:00am 27.7 WSW 3 5 1007.3 - 0.0 - - - - - - -
20/02:30am 27.8 WSW 5 10 1007.1 - 0.0 - - - - - - -
20/02:00am 27.9 WSW 6 13 1007.2 - 0.0 - - - - - - -
20/01:30am 28.0 W 7 13 1007.5 - 0.0 - - - - - - -
20/01:00am 28.1 WSW 6 13 1008.0 - 0.0 - - - - - - -
20/12:30am 28.2 WSW 6 13 1008.4 - 0.0 - - - - - - -
20/12:00am 28.3 WSW 6 12 1008.2 - 0.0 - - - - - - -
 
Date/Time
CST
Temp
°C
Wind Pressure Rain since
9am
mm
Weather Cloud Vis
km
Sea
Height
m
Swell
Dir  Spd
kts
Gust
kts
hPa Trend Height
m
Period
s
Dir
19/11:30pm 28.2 WSW 5 9 1008.4 - 0.0 - - - - - - -
19/11:00pm 28.1 SW 5 10 1008.4 - 0.0 - - - - - - -
19/10:30pm 28.1 SW 6 11 1008.5 - 0.0 - - - - - - -
19/10:00pm 28.1 SW 6 14 1008.4 - 0.0 - - - - - - -
19/09:30pm 28.1 WSW 5 11 1007.9 - 0.0 - - - - - - -
19/09:00pm 28.3 SW 6 14 1007.4 - 0.0 - - - - - - -
19/08:30pm 28.2 WSW 5 12 1007.2 - 0.0 - - - - - - -
19/08:00pm 28.3 WSW 6 10 1006.8 - 0.0 - - - - - - -
19/07:30pm 28.2 WSW 5 11 1006.6 - 0.0 - - - - - - -
19/07:00pm 28.2 WSW 6 11 1006.5 - 0.0 - - - - - - -
19/06:30pm 28.4 WSW 5 12 1005.8 - 0.0 - - - - - - -
19/06:00pm 28.7 WSW 6 13 1005.6 - 0.0 - - - - - - -
19/05:30pm 29.1 WSW 6 12 1005.5 - 0.0 - - - - - - -
19/05:00pm 29.3 SW 4 9 1005.5 - 0.0 - - - - - - -
19/04:30pm 29.5 SSW 4 8 1006.0 - 0.0 - - - - - - -
19/04:00pm 29.4 WSW 5 8 1006.0 - 0.0 - - - - - - -
19/03:30pm 29.4 WSW 7 13 1006.1 - 0.0 - - - - - - -
19/03:00pm 29.3 W 7 12 1005.8 - 0.0 - - - - - - -
19/02:30pm 29.7 W 7 13 1005.9 - 0.0 - - - - - - -
19/02:00pm 30.0 W 9 14 1006.5 - 0.0 - - - - - - -
19/01:30pm 30.2 WNW 13 18 1007.2 - 0.0 - - - - - - -
19/01:00pm 30.0 WNW 11 16 1007.8 - 0.0 - - - - - - -
19/12:30pm 30.4 WNW 13 16 1008.2 - 0.0 - - - - - - -
19/12:00pm 30.5 WNW 13 16 1008.7 - 0.0 - - - - - - -
19/11:30am 30.4 NW 13 18 1009.0 - 0.0 - - - - - - -
19/11:00am 30.3 WNW 14 18 1009.2 - 0.0 - - - - - - -
19/10:30am 30.0 WNW 12 16 1009.5 - 0.0 - - - - - - -
19/10:00am 29.8 WNW 11 15 1009.3 - 0.0 - - - - - - -
19/09:30am 29.5 WNW 13 16 1009.3 - 0.0 - - - - - - -
19/09:00am 29.1 WNW 9 16 1009.1 - 0.0 - - - - - - -
19/08:30am 28.7 W 7 15 1008.9 - 0.0 - - - - - - -
19/08:00am 28.5 W 7 16 1008.6 - 0.0 - - - - - - -
19/07:30am 28.1 W 8 13 1008.2 - 0.0 - - - - - - -
19/07:00am 28.1 W 6 10 1008.0 - 0.0 - - - - - - -
19/06:30am 28.1 W 5 8 1008.1 - 0.0 - - - - - - -
19/06:00am 28.1 WNW 8 13 1007.8 - 0.0 - - - - - - -
19/05:30am 28.0 W 6 11 1007.7 - 0.0 - - - - - - -
19/05:00am 28.1 W 7 11 1007.5 - 0.0 - - - - - - -
19/04:30am 28.0 WNW 9 15 1007.0 - 0.0 - - - - - - -

Other Formats:

Comma delimited format used in spreadsheet applications
http://www.bom.gov.au/fwo/IDD60701/IDD60701.99510.axf

JavaScript Object Notation format (JSON) in row-major order
http://www.bom.gov.au/fwo/IDD60701/IDD60701.99510.json